createdAt,value
2023-06-25T04:00:31.728Z,21.16
2023-06-25T04:05:31.656Z,21.44
2023-06-25T04:10:31.601Z,21.57
2023-06-25T04:15:38.967Z,21.55
2023-06-25T04:20:31.508Z,21.75
2023-06-25T04:25:31.447Z,23.08
2023-06-25T04:30:31.389Z,25.73
2023-06-25T04:35:32.637Z,27.59
2023-06-25T04:40:31.285Z,27.86
2023-06-25T04:45:31.244Z,28.91
2023-06-25T04:50:31.189Z,29.24
2023-06-25T04:55:31.155Z,29.09
2023-06-25T05:00:31.071Z,29.10
2023-06-25T05:05:31.022Z,29.27
2023-06-25T05:10:30.971Z,29.35
2023-06-25T05:15:30.945Z,29.57
2023-06-25T05:20:30.870Z,30.52
2023-06-25T05:25:30.913Z,30.84
2023-06-25T05:30:33.073Z,31.24
2023-06-25T05:35:30.738Z,31.26
2023-06-25T05:40:30.659Z,31.37
2023-06-25T05:45:30.605Z,31.96
2023-06-25T05:50:30.577Z,32.06
2023-06-25T05:55:30.604Z,31.50
2023-06-25T06:00:30.529Z,32.38
2023-06-25T06:05:30.413Z,31.74
2023-06-25T06:10:30.361Z,32.73
2023-06-25T06:15:30.332Z,32.17
2023-06-25T06:20:30.257Z,32.31
2023-06-25T06:25:30.208Z,33.51
2023-06-25T06:30:30.239Z,33.37
2023-06-25T06:35:30.138Z,33.92
2023-06-25T06:40:30.112Z,33.39
2023-06-25T06:45:30.036Z,34.19
2023-06-25T06:50:29.962Z,34.42
2023-06-25T06:55:29.938Z,33.52
2023-06-25T07:00:29.867Z,34.16
2023-06-25T07:05:29.893Z,33.73
2023-06-25T07:10:29.762Z,34.27
2023-06-25T07:15:29.864Z,34.20
2023-06-25T07:20:29.747Z,34.48
2023-06-25T07:25:29.624Z,33.88
2023-06-25T07:30:29.574Z,34.26
2023-06-25T07:35:29.540Z,34.38
2023-06-25T07:40:29.471Z,34.42
2023-06-25T07:45:29.441Z,35.06
2023-06-25T07:50:29.411Z,35.95
2023-06-25T07:55:29.343Z,34.49
2023-06-25T08:00:29.282Z,35.08
2023-06-25T08:05:29.221Z,35.28
2023-06-25T08:10:29.193Z,36.03
2023-06-25T08:15:29.149Z,35.15
2023-06-25T08:20:29.133Z,35.00
2023-06-25T08:25:29.025Z,35.08
2023-06-25T08:30:28.984Z,35.28
2023-06-25T08:35:28.964Z,34.69
2023-06-25T08:40:28.886Z,34.59
2023-06-25T08:45:28.837Z,34.31
2023-06-25T08:50:28.790Z,33.98
2023-06-25T08:55:28.750Z,34.34
2023-06-25T09:00:28.770Z,33.71
2023-06-25T09:05:28.640Z,33.37
2023-06-25T09:10:28.578Z,33.28
2023-06-25T09:15:28.604Z,33.33
2023-06-25T09:20:28.473Z,32.98
2023-06-25T09:25:28.431Z,32.84
2023-06-25T09:30:28.392Z,32.81
2023-06-25T09:35:28.343Z,33.47
2023-06-25T09:40:28.276Z,33.89
2023-06-25T09:45:28.224Z,33.71
2023-06-25T09:50:28.182Z,33.37
2023-06-25T09:55:28.143Z,33.44
2023-06-25T10:00:28.117Z,33.20
2023-06-25T10:05:28.036Z,32.96
2023-06-25T10:10:27.983Z,33.46
2023-06-25T10:15:28.052Z,32.86
2023-06-25T10:20:34.946Z,33.43
2023-06-25T10:25:27.807Z,33.72
2023-06-25T10:30:27.797Z,32.99
2023-06-25T10:35:27.733Z,32.66
2023-06-25T10:40:27.667Z,32.59
2023-06-25T10:45:27.626Z,33.08
2023-06-25T10:50:27.565Z,32.87
2023-06-25T10:55:27.554Z,32.62
2023-06-25T11:00:27.450Z,32.80
2023-06-25T11:05:27.417Z,33.50
2023-06-25T11:10:27.358Z,33.59
2023-06-25T11:15:27.334Z,33.42
2023-06-25T11:20:28.659Z,34.18
2023-06-25T11:25:27.230Z,33.70
2023-06-25T11:30:27.148Z,33.25
2023-06-25T11:35:27.135Z,33.82
2023-06-25T11:40:27.058Z,33.75
2023-06-25T11:45:27.021Z,33.99
2023-06-25T11:50:26.949Z,34.07
2023-06-25T11:55:26.959Z,33.67
2023-06-25T12:00:26.841Z,33.67
2023-06-25T12:05:26.816Z,33.48
2023-06-25T12:10:26.759Z,33.50
2023-06-25T12:15:26.706Z,33.45
2023-06-25T12:20:26.661Z,33.83
2023-06-25T12:25:26.600Z,33.25
2023-06-25T12:30:26.571Z,33.50
2023-06-25T12:35:26.522Z,33.78
2023-06-25T12:40:26.725Z,33.32
2023-06-25T12:45:26.382Z,33.49
2023-06-25T12:50:26.343Z,33.32
2023-06-25T12:55:26.336Z,33.59
2023-06-25T13:00:40.983Z,33.87
2023-06-25T13:05:27.194Z,34.43
2023-06-25T13:10:26.146Z,33.87
2023-06-25T13:15:26.120Z,34.23
2023-06-25T13:20:26.058Z,34.28
2023-06-25T13:25:25.997Z,33.89
2023-06-25T13:30:25.955Z,33.14
2023-06-25T13:35:25.923Z,33.75
2023-06-25T13:40:25.843Z,33.73
2023-06-25T13:45:26.037Z,33.70
2023-06-25T13:50:25.749Z,33.98
2023-06-25T13:55:25.710Z,34.33
2023-06-25T14:00:25.628Z,34.05
2023-06-25T14:05:25.586Z,34.50
2023-06-25T14:10:25.540Z,34.23
2023-06-25T14:15:25.583Z,34.01
2023-06-25T14:20:25.444Z,33.66
2023-06-25T14:25:25.399Z,34.00
2023-06-25T14:30:25.344Z,33.74
2023-06-25T14:35:25.316Z,33.88
2023-06-25T14:40:25.278Z,33.72
2023-06-25T14:45:25.189Z,33.75
2023-06-25T14:50:25.139Z,33.93
2023-06-25T14:55:25.112Z,34.37
2023-06-25T15:00:25.042Z,34.37
2023-06-25T15:05:24.991Z,34.13
2023-06-25T15:10:24.947Z,34.07
2023-06-25T15:15:24.901Z,34.43
2023-06-25T15:20:24.841Z,34.42
2023-06-25T15:25:24.782Z,34.27
2023-06-25T15:30:24.741Z,34.49
2023-06-25T15:35:24.855Z,34.18
2023-06-25T15:40:24.651Z,33.66
2023-06-25T15:45:24.587Z,33.87
2023-06-25T15:50:24.566Z,33.86
2023-06-25T15:55:24.548Z,33.71
2023-06-25T16:00:24.439Z,33.56
2023-06-25T16:05:24.380Z,33.89
2023-06-25T16:10:24.539Z,33.74
2023-06-25T16:15:24.314Z,33.29
2023-06-25T16:20:31.272Z,33.45
2023-06-25T16:25:24.182Z,33.36
2023-06-25T16:30:24.221Z,33.05
2023-06-25T16:35:24.102Z,33.13
2023-06-25T16:40:24.032Z,33.11
2023-06-25T16:45:23.979Z,33.19
2023-06-25T16:50:23.932Z,33.20
2023-06-25T16:55:23.909Z,33.32
2023-06-25T17:00:23.827Z,33.22
2023-06-25T17:05:23.775Z,32.69
2023-06-25T17:10:23.767Z,32.77
2023-06-25T17:15:23.734Z,32.04
2023-06-25T17:20:23.642Z,32.06
2023-06-25T17:25:23.580Z,32.05
2023-06-25T17:30:23.514Z,31.78
2023-06-25T17:35:23.491Z,31.66
2023-06-25T17:40:23.415Z,31.58
2023-06-25T17:45:23.378Z,31.31
2023-06-25T17:50:23.306Z,31.19
2023-06-25T17:55:23.286Z,31.05
2023-06-25T18:00:23.207Z,30.91
2023-06-25T18:05:23.163Z,30.65
2023-06-25T18:10:23.104Z,30.63
2023-06-25T18:15:23.096Z,30.48
2023-06-25T18:20:23.001Z,30.41
2023-06-25T18:25:22.954Z,30.20
2023-06-25T18:30:22.891Z,30.01
2023-06-25T18:35:22.859Z,29.79
2023-06-25T18:40:23.977Z,29.77
2023-06-25T18:45:22.742Z,29.53
2023-06-25T18:50:22.684Z,29.42
2023-06-25T18:55:22.755Z,29.33
2023-06-25T19:00:22.586Z,29.11
2023-06-25T19:05:22.540Z,29.05
2023-06-25T19:10:22.480Z,29.05
2023-06-25T19:15:22.444Z,28.94
2023-06-25T19:20:22.388Z,28.82
2023-06-25T19:25:22.323Z,28.69
2023-06-25T19:30:22.269Z,28.56
2023-06-25T19:35:22.252Z,28.34
2023-06-25T19:40:22.172Z,28.12
2023-06-25T19:45:22.176Z,27.92
2023-06-25T19:50:22.056Z,27.80
2023-06-25T19:55:22.047Z,27.65
2023-06-25T20:00:21.958Z,27.42
2023-06-25T20:05:21.969Z,27.44
2023-06-25T20:10:21.838Z,27.33
2023-06-25T20:15:21.810Z,27.18
2023-06-25T20:20:21.743Z,27.15
2023-06-25T20:25:21.691Z,27.11
2023-06-25T20:30:21.632Z,26.94
2023-06-25T20:35:21.602Z,26.76
2023-06-25T20:40:21.530Z,26.66
2023-06-25T20:45:21.470Z,26.64
2023-06-25T20:50:21.455Z,26.55
2023-06-25T20:55:21.393Z,26.33
2023-06-25T21:00:21.328Z,26.18
2023-06-25T21:05:21.265Z,26.04
2023-06-25T21:10:21.218Z,26.06
2023-06-25T21:15:21.193Z,26.01
2023-06-25T21:20:21.102Z,26.00
2023-06-25T21:25:21.054Z,26.01
2023-06-25T21:30:21.015Z,25.95
2023-06-25T21:35:20.993Z,25.84
2023-06-25T21:40:20.895Z,25.97
2023-06-25T21:45:20.837Z,25.96
2023-06-25T21:50:20.806Z,25.92
2023-06-25T21:55:20.758Z,26.04
2023-06-25T22:00:20.672Z,26.00
2023-06-25T22:05:20.631Z,26.00
2023-06-25T22:10:20.586Z,25.90
2023-06-25T22:15:20.527Z,25.87
2023-06-25T22:20:27.488Z,25.91
2023-06-25T22:25:20.407Z,26.03
2023-06-25T22:30:20.459Z,25.79
2023-06-25T22:35:20.316Z,25.66
2023-06-25T22:40:20.236Z,25.71
2023-06-25T22:45:20.185Z,25.70
2023-06-25T22:50:20.154Z,25.72
2023-06-25T22:55:20.124Z,25.69
2023-06-25T23:00:20.025Z,25.71
2023-06-25T23:05:19.968Z,25.56
2023-06-25T23:10:19.909Z,25.46
2023-06-25T23:15:19.884Z,25.38
2023-06-25T23:20:19.799Z,25.30
2023-06-25T23:25:28.463Z,25.34
